Time;durP1;ratioP1;P1;durP2;ratioP2;P2;SDS_P1;SDS_P2;PMS_P1;PMS_P2;Temp;Humidity;BMP_temperature;BMP_pressure;BME280_temperature;BME280_humidity;BME280_pressure;Samples;Min_cycle;Max_cycle;Signal;HPM_P1;HPM_P2
2022/06/25 00:01:56;;;;;;;;;;;17.90;99.90;;;;;;5006646;28;19924;-75
2022/06/25 00:07:06;;;;;;;;;;;17.90;99.90;;;;;;5015567;28;19925;-75
2022/06/25 00:09:31;;;;;;;;;;;17.80;99.90;;;;;;4991712;28;19975;-75
2022/06/25 00:14:41;;;;;;;;;;;17.80;99.90;;;;;;4987612;28;20295;-75
2022/06/25 00:17:07;;;;;;;;;;;17.70;99.90;;;;;;5008224;28;19924;-75
2022/06/25 00:19:33;;;;;;;;;;;17.70;99.90;;;;;;5007601;28;19929;-76
2022/06/25 00:21:58;;;;;;;;;;;17.70;99.90;;;;;;4991932;28;19971;-75
2022/06/25 00:24:24;;;;;;;;;;;17.70;99.90;;;;;;5008639;28;19925;-75
2022/06/25 00:26:50;;;;;;;;;;;17.70;99.90;;;;;;5007081;28;19924;-75
2022/06/25 00:29:16;;;;;;;;;;;17.60;99.90;;;;;;5005573;28;19925;-75
2022/06/25 00:31:41;;;;;;;;;;;17.60;99.90;;;;;;5007391;28;20010;-75
2022/06/25 00:34:07;;;;;;;;;;;17.50;99.90;;;;;;5022309;28;19918;-75
2022/06/25 00:36:33;;;;;;;;;;;17.60;99.90;;;;;;5004524;28;19924;-75
2022/06/25 00:38:58;;;;;;;;;;;17.50;99.90;;;;;;5003163;28;19921;-75
2022/06/25 00:41:24;;;;;;;;;;;17.50;99.90;;;;;;5007570;28;19971;-75
2022/06/25 00:43:50;;;;;;;;;;;17.50;99.90;;;;;;5007681;28;19925;-75
2022/06/25 00:46:15;;;;;;;;;;;17.50;99.90;;;;;;4987674;28;19928;-75
2022/06/25 00:48:41;;;;;;;;;;;17.50;99.90;;;;;;5004466;28;19925;-75
2022/06/25 00:51:11;;;;;;;;;;;17.50;99.90;;;;;;5004231;28;19918;-75
2022/06/25 00:53:39;;;;;;;;;;;17.40;99.90;;;;;;5002310;28;20048;-75
2022/06/25 00:56:07;;;;;;;;;;;17.40;99.90;;;;;;5005333;28;19933;-75
2022/06/25 00:58:33;;;;;;;;;;;17.40;99.90;;;;;;5006171;28;19918;-75
2022/06/25 01:01:08;;;;;;;;;;;17.40;99.90;;;;;;5006939;28;19921;-75
2022/06/25 01:03:34;;;;;;;;;;;17.40;99.90;;;;;;5005353;28;19918;-75
2022/06/25 01:05:59;;;;;;;;;;;17.30;99.90;;;;;;5004467;28;19997;-73
2022/06/25 01:08:25;;;;;;;;;;;17.30;99.90;;;;;;4991266;28;20024;-73
2022/06/25 01:10:51;;;;;;;;;;;17.30;99.90;;;;;;5007638;28;19972;-76
2022/06/25 01:13:21;;;;;;;;;;;17.20;99.90;;;;;;5005855;28;19936;-74
2022/06/25 01:15:47;;;;;;;;;;;17.20;99.90;;;;;;4991409;28;19944;-74
2022/06/25 01:18:12;;;;;;;;;;;17.20;99.90;;;;;;5007554;28;19957;-74
2022/06/25 01:20:38;;;;;;;;;;;17.20;99.90;;;;;;4991023;28;19964;-74
2022/06/25 01:23:03;;;;;;;;;;;17.20;99.90;;;;;;5006720;28;19918;-74
2022/06/25 01:25:33;;;;;;;;;;;17.20;99.90;;;;;;4987079;28;19922;-75
2022/06/25 01:27:59;;;;;;;;;;;17.10;99.90;;;;;;4992996;28;19921;-74
2022/06/25 01:30:24;;;;;;;;;;;17.10;99.90;;;;;;4990892;28;19917;-75
2022/06/25 01:32:51;;;;;;;;;;;17.10;99.90;;;;;;5007938;28;20008;-74
2022/06/25 01:35:17;;;;;;;;;;;17.10;99.90;;;;;;5006981;28;19925;-74
2022/06/25 01:37:42;;;;;;;;;;;17.00;99.90;;;;;;5007453;28;19917;-74
2022/06/25 01:40:08;;;;;;;;;;;17.00;99.90;;;;;;5009402;28;19917;-74
2022/06/25 01:45:18;;;;;;;;;;;17.00;99.90;;;;;;5008663;28;19928;-74
2022/06/25 01:47:44;;;;;;;;;;;17.00;99.90;;;;;;5004357;28;19925;-74
2022/06/25 01:50:10;;;;;;;;;;;16.90;99.90;;;;;;5002263;28;19921;-74
2022/06/25 01:52:36;;;;;;;;;;;16.90;99.90;;;;;;5004886;28;19925;-75
2022/06/25 01:55:02;;;;;;;;;;;16.90;99.90;;;;;;4998822;28;19925;-75
2022/06/25 01:57:28;;;;;;;;;;;16.90;99.90;;;;;;5004320;28;19921;-74
2022/06/25 01:59:53;;;;;;;;;;;16.90;99.90;;;;;;4996949;28;19943;-74
2022/06/25 02:02:19;;;;;;;;;;;16.80;99.90;;;;;;5020883;28;19993;-74
2022/06/25 02:04:45;;;;;;;;;;;16.80;99.90;;;;;;5015541;28;19917;-73
2022/06/25 02:07:10;;;;;;;;;;;16.80;99.90;;;;;;4993695;28;19917;-74
2022/06/25 02:09:36;;;;;;;;;;;16.80;99.90;;;;;;5016405;28;19921;-75
2022/06/25 02:12:03;;;;;;;;;;;16.80;99.90;;;;;;5009441;28;19929;-74
2022/06/25 02:14:28;;;;;;;;;;;16.80;99.90;;;;;;5006219;28;19918;-75
2022/06/25 02:16:54;;;;;;;;;;;16.80;99.90;;;;;;5014344;28;19924;-74
2022/06/25 02:19:19;;;;;;;;;;;16.80;99.90;;;;;;5005216;28;19917;-74
2022/06/25 02:21:45;;;;;;;;;;;16.80;99.90;;;;;;5011848;28;19973;-74
2022/06/25 02:24:11;;;;;;;;;;;16.80;99.90;;;;;;5019853;28;19917;-74
2022/06/25 02:26:36;;;;;;;;;;;16.80;99.90;;;;;;5018195;28;19917;-74
2022/06/25 02:29:02;;;;;;;;;;;16.70;99.90;;;;;;5011685;28;19940;-74
2022/06/25 02:31:28;;;;;;;;;;;16.70;99.90;;;;;;5004278;28;19917;-74
2022/06/25 02:33:54;;;;;;;;;;;16.70;99.90;;;;;;5020583;28;19924;-74
2022/06/25 02:36:19;;;;;;;;;;;16.60;99.90;;;;;;5019693;28;19917;-74
2022/06/25 02:38:45;;;;;;;;;;;16.70;99.90;;;;;;5013560;28;19921;-74
2022/06/25 02:41:11;;;;;;;;;;;16.60;99.90;;;;;;5020168;28;20030;-74
2022/06/25 02:43:37;;;;;;;;;;;16.70;99.90;;;;;;5023365;28;19924;-74
2022/06/25 02:46:02;;;;;;;;;;;16.60;99.90;;;;;;5002967;28;19917;-74
2022/06/25 02:48:28;;;;;;;;;;;16.60;99.90;;;;;;4993515;28;19917;-74
2022/06/25 02:50:53;;;;;;;;;;;16.60;99.90;;;;;;5011210;28;20007;-74
2022/06/25 02:53:19;;;;;;;;;;;16.60;99.90;;;;;;5014250;28;20004;-74
2022/06/25 03:01:13;;;;;;;;;;;16.60;99.90;;;;;;5012576;28;19983;-74
2022/06/25 03:03:39;;;;;;;;;;;16.60;99.90;;;;;;5017584;28;19921;-74
2022/06/25 03:06:04;;;;;;;;;;;16.60;99.90;;;;;;5010683;28;19924;-74
2022/06/25 03:08:30;;;;;;;;;;;16.60;99.90;;;;;;5010757;28;20303;-74
2022/06/25 03:10:55;;;;;;;;;;;16.60;99.90;;;;;;5009496;28;19967;-74
2022/06/25 03:13:21;;;;;;;;;;;16.60;99.90;;;;;;5014540;28;19928;-74
2022/06/25 03:15:47;;;;;;;;;;;16.60;99.90;;;;;;5022294;28;19924;-74
2022/06/25 03:18:12;;;;;;;;;;;16.60;99.90;;;;;;5003458;28;19923;-74
2022/06/25 03:20:38;;;;;;;;;;;16.60;99.90;;;;;;5010946;28;19917;-75
2022/06/25 03:23:03;;;;;;;;;;;16.60;99.90;;;;;;5011342;28;19953;-75
2022/06/25 03:25:29;;;;;;;;;;;16.60;99.90;;;;;;5013117;28;19924;-75
2022/06/25 03:27:55;;;;;;;;;;;16.60;99.90;;;;;;5007372;28;19971;-75
2022/06/25 03:30:21;;;;;;;;;;;16.60;99.90;;;;;;5006845;28;19921;-75
2022/06/25 03:32:46;;;;;;;;;;;16.60;99.90;;;;;;5010629;28;20007;-75
2022/06/25 03:35:12;;;;;;;;;;;16.50;99.90;;;;;;5018436;28;19928;-75
2022/06/25 03:37:37;;;;;;;;;;;16.60;99.90;;;;;;5016012;28;19976;-75
2022/06/25 03:40:03;;;;;;;;;;;16.50;99.90;;;;;;5004512;28;19964;-75
2022/06/25 03:42:29;;;;;;;;;;;16.60;99.90;;;;;;5010392;28;19917;-75
2022/06/25 03:44:54;;;;;;;;;;;16.60;99.90;;;;;;5014923;28;19917;-75
2022/06/25 03:47:20;;;;;;;;;;;16.60;99.90;;;;;;5015494;28;20014;-74
2022/06/25 03:49:46;;;;;;;;;;;16.60;99.90;;;;;;5003704;28;20291;-75
2022/06/25 03:52:11;;;;;;;;;;;16.60;99.90;;;;;;5017959;28;19928;-75
2022/06/25 03:54:37;;;;;;;;;;;16.70;99.90;;;;;;5011768;28;19917;-75
2022/06/25 03:57:03;;;;;;;;;;;16.70;99.90;;;;;;5007729;28;19926;-75
2022/06/25 03:59:29;;;;;;;;;;;16.60;99.90;;;;;;5011658;28;19917;-75
2022/06/25 04:01:54;;;;;;;;;;;16.70;99.90;;;;;;5018275;28;19924;-75
2022/06/25 04:04:20;;;;;;;;;;;16.70;99.90;;;;;;5018255;28;19971;-75
2022/06/25 04:06:45;;;;;;;;;;;16.70;99.90;;;;;;5013528;28;19921;-75
2022/06/25 04:09:11;;;;;;;;;;;16.70;99.90;;;;;;5012751;28;19920;-75
2022/06/25 04:11:37;;;;;;;;;;;16.70;99.90;;;;;;5003343;28;19956;-75
2022/06/25 04:14:03;;;;;;;;;;;16.80;99.90;;;;;;5013924;28;20007;-75
2022/06/25 04:16:28;;;;;;;;;;;16.80;99.90;;;;;;5012532;28;19918;-75
2022/06/25 04:18:54;;;;;;;;;;;16.80;99.90;;;;;;5013462;28;19917;-75
2022/06/25 04:21:19;;;;;;;;;;;16.80;99.90;;;;;;4993716;28;19980;-75
2022/06/25 04:23:45;;;;;;;;;;;16.80;99.90;;;;;;5016567;28;19926;-75
2022/06/25 04:26:10;;;;;;;;;;;16.90;99.90;;;;;;5014459;28;20005;-75
2022/06/25 04:31:20;;;;;;;;;;;16.90;99.90;;;;;;5015030;28;19917;-75
2022/06/25 04:33:46;;;;;;;;;;;16.90;99.90;;;;;;5018683;28;20019;-75
2022/06/25 04:36:11;;;;;;;;;;;16.90;99.90;;;;;;5014544;28;19962;-75
2022/06/25 04:38:37;;;;;;;;;;;17.00;99.90;;;;;;5018781;28;19928;-75
2022/06/25 04:41:02;;;;;;;;;;;17.00;99.90;;;;;;5012636;28;20447;-75
2022/06/25 04:43:28;;;;;;;;;;;17.00;99.90;;;;;;5024892;28;19964;-75
2022/06/25 04:45:54;;;;;;;;;;;17.00;99.90;;;;;;5017015;28;20020;-75
2022/06/25 04:48:19;;;;;;;;;;;17.00;99.90;;;;;;5016955;28;20330;-75
2022/06/25 04:50:45;;;;;;;;;;;17.00;99.90;;;;;;5011899;28;19940;-75
2022/06/25 04:53:11;;;;;;;;;;;17.00;99.90;;;;;;5016627;28;19926;-75
2022/06/25 04:55:37;;;;;;;;;;;17.10;99.90;;;;;;5023406;28;19964;-75
2022/06/25 04:58:02;;;;;;;;;;;17.10;99.90;;;;;;5017809;28;19968;-75
2022/06/25 05:00:28;;;;;;;;;;;17.20;99.90;;;;;;5011006;28;19917;-75
2022/06/25 05:02:54;;;;;;;;;;;17.20;99.90;;;;;;5012571;28;19917;-75
2022/06/25 05:05:19;;;;;;;;;;;17.10;99.90;;;;;;5020621;28;19917;-75
2022/06/25 05:07:45;;;;;;;;;;;17.20;99.90;;;;;;5012717;28;20195;-75
2022/06/25 05:10:11;;;;;;;;;;;17.20;99.90;;;;;;5011523;28;19924;-75
2022/06/25 05:15:21;;;;;;;;;;;17.30;99.90;;;;;;5025776;28;19921;-75
2022/06/25 05:17:47;;;;;;;;;;;17.40;99.90;;;;;;5019926;28;20279;-75
2022/06/25 05:20:14;;;;;;;;;;;17.40;99.90;;;;;;5012044;28;20332;-75
2022/06/25 05:22:39;;;;;;;;;;;17.50;99.90;;;;;;5019611;28;19999;-75
2022/06/25 05:25:05;;;;;;;;;;;17.50;99.90;;;;;;5017108;28;19928;-75
2022/06/25 05:27:31;;;;;;;;;;;17.50;99.90;;;;;;5018843;28;20544;-75
2022/06/25 05:29:57;;;;;;;;;;;17.60;99.90;;;;;;4992186;28;19921;-75
2022/06/25 05:32:22;;;;;;;;;;;17.60;99.90;;;;;;5017542;28;19922;-75
2022/06/25 05:34:48;;;;;;;;;;;17.70;99.90;;;;;;5004061;28;19971;-75
2022/06/25 05:37:14;;;;;;;;;;;17.80;99.90;;;;;;5023033;28;19928;-75
2022/06/25 05:39:40;;;;;;;;;;;17.80;99.90;;;;;;5020100;28;19972;-75
2022/06/25 05:42:05;;;;;;;;;;;17.90;99.90;;;;;;5011652;28;20015;-75
2022/06/25 05:44:31;;;;;;;;;;;17.90;99.90;;;;;;5001977;28;20276;-75
2022/06/25 05:46:57;;;;;;;;;;;17.90;99.90;;;;;;5019826;28;19925;-75
2022/06/25 05:49:22;;;;;;;;;;;18.00;99.90;;;;;;5019579;28;19939;-75
2022/06/25 05:51:48;;;;;;;;;;;18.10;99.90;;;;;;5003426;28;20367;-75
2022/06/25 05:54:14;;;;;;;;;;;18.10;99.90;;;;;;5010711;28;20438;-75
2022/06/25 05:56:40;;;;;;;;;;;18.30;99.90;;;;;;5017480;28;20419;-75
2022/06/25 05:59:05;;;;;;;;;;;18.20;99.90;;;;;;5008320;28;20379;-75
2022/06/25 06:01:31;;;;;;;;;;;18.40;99.90;;;;;;5014370;28;20043;-75
2022/06/25 06:03:56;;;;;;;;;;;18.40;99.90;;;;;;5016477;28;20455;-75
2022/06/25 06:06:22;;;;;;;;;;;18.50;99.90;;;;;;5009766;28;20399;-75
2022/06/25 06:08:48;;;;;;;;;;;18.60;99.90;;;;;;4993931;28;19975;-75
2022/06/25 06:11:13;;;;;;;;;;;18.60;99.90;;;;;;4990390;28;19971;-71
2022/06/25 06:13:39;;;;;;;;;;;18.60;99.90;;;;;;5011468;28;20028;-71
2022/06/25 06:16:04;;;;;;;;;;;18.70;99.90;;;;;;5011022;28;19917;-71
2022/06/25 06:18:30;;;;;;;;;;;18.80;99.90;;;;;;5009075;28;20287;-71
2022/06/25 06:20:55;;;;;;;;;;;18.80;99.90;;;;;;5001164;28;20305;-71
2022/06/25 06:23:21;;;;;;;;;;;18.90;99.90;;;;;;5011432;28;20372;-71
2022/06/25 06:25:46;;;;;;;;;;;18.90;99.90;;;;;;5010676;28;19917;-71
2022/06/25 06:28:12;;;;;;;;;;;19.00;99.90;;;;;;5019014;28;19983;-72
2022/06/25 06:30:38;;;;;;;;;;;19.10;99.90;;;;;;4975005;28;19925;-72
2022/06/25 06:33:03;;;;;;;;;;;19.20;99.90;;;;;;5008746;28;20323;-71
2022/06/25 06:35:29;;;;;;;;;;;19.30;99.90;;;;;;5016618;28;20280;-71
2022/06/25 06:37:55;;;;;;;;;;;19.40;99.90;;;;;;5020436;28;19993;-71
2022/06/25 06:40:20;;;;;;;;;;;19.40;99.90;;;;;;5005564;28;20034;-71
2022/06/25 06:42:46;;;;;;;;;;;19.50;99.90;;;;;;5004680;28;19940;-71
2022/06/25 06:45:11;;;;;;;;;;;19.50;99.90;;;;;;5017505;28;19943;-71
2022/06/25 06:47:37;;;;;;;;;;;19.60;99.90;;;;;;5014030;28;19917;-71
2022/06/25 06:50:03;;;;;;;;;;;19.70;99.90;;;;;;5010443;28;20011;-72
2022/06/25 06:52:28;;;;;;;;;;;19.80;99.90;;;;;;5018918;28;19928;-71
2022/06/25 06:54:57;;;;;;;;;;;20.00;99.90;;;;;;5018996;28;20498;-71
2022/06/25 06:57:23;;;;;;;;;;;20.00;99.90;;;;;;5022320;28;20046;-71
2022/06/25 06:59:48;;;;;;;;;;;20.20;99.90;;;;;;5011954;28;19921;-71
2022/06/25 07:02:14;;;;;;;;;;;20.30;99.90;;;;;;5012233;28;19916;-71
2022/06/25 07:04:39;;;;;;;;;;;20.30;99.90;;;;;;5014674;28;20004;-71
2022/06/25 07:07:05;;;;;;;;;;;20.40;99.90;;;;;;4987730;28;19929;-71
2022/06/25 07:09:31;;;;;;;;;;;20.50;99.90;;;;;;4987902;28;19918;-71
2022/06/25 07:11:56;;;;;;;;;;;20.60;99.90;;;;;;5007780;28;19925;-69
2022/06/25 07:14:22;;;;;;;;;;;20.70;99.90;;;;;;5003961;28;19918;-70
2022/06/25 07:16:48;;;;;;;;;;;20.80;99.90;;;;;;5013254;28;19917;-70
2022/06/25 07:19:14;;;;;;;;;;;20.80;99.90;;;;;;5010872;28;19922;-71
2022/06/25 07:21:40;;;;;;;;;;;20.90;99.90;;;;;;5004287;28;19963;-70
2022/06/25 07:24:05;;;;;;;;;;;21.00;99.90;;;;;;5007932;28;19928;-76
2022/06/25 07:26:31;;;;;;;;;;;21.00;99.90;;;;;;5005652;28;20052;-79
2022/06/25 07:28:57;;;;;;;;;;;21.10;99.90;;;;;;4990466;28;19960;-77
2022/06/25 07:31:22;;;;;;;;;;;21.10;99.90;;;;;;4976032;28;19944;-77
2022/06/25 07:33:48;;;;;;;;;;;21.20;99.90;;;;;;5005272;28;19966;-77
2022/06/25 07:36:14;;;;;;;;;;;21.20;99.90;;;;;;5012498;28;20025;-77
2022/06/25 07:38:39;;;;;;;;;;;21.30;99.90;;;;;;5021770;28;20001;-77
2022/06/25 07:41:05;;;;;;;;;;;21.40;99.90;;;;;;5008236;28;20390;-78
2022/06/25 07:43:31;;;;;;;;;;;21.40;99.90;;;;;;5002898;28;20001;-77
2022/06/25 07:45:57;;;;;;;;;;;21.50;99.90;;;;;;5020519;28;19917;-77
2022/06/25 07:48:23;;;;;;;;;;;21.50;99.90;;;;;;4997356;28;20545;-77
2022/06/25 07:53:34;;;;;;;;;;;21.50;99.90;;;;;;5007871;28;19969;-77
2022/06/25 07:55:59;;;;;;;;;;;21.60;99.90;;;;;;5010786;28;19965;-77
2022/06/25 07:58:25;;;;;;;;;;;21.60;99.90;;;;;;5016098;28;20004;-77
2022/06/25 08:00:51;;;;;;;;;;;21.80;99.90;;;;;;4996925;28;19918;-77
2022/06/25 08:03:18;;;;;;;;;;;21.80;99.90;;;;;;4995936;28;20303;-78
2022/06/25 08:05:44;;;;;;;;;;;21.80;99.90;;;;;;4994205;28;19925;-78
2022/06/25 08:08:09;;;;;;;;;;;22.00;99.90;;;;;;5010480;28;19921;-80
2022/06/25 08:10:35;;;;;;;;;;;22.10;99.90;;;;;;4998924;28;19921;-80
2022/06/25 08:13:02;;;;;;;;;;;22.10;99.90;;;;;;5012359;28;20012;-78
2022/06/25 08:15:27;;;;;;;;;;;22.10;99.90;;;;;;5005043;28;19917;-80
2022/06/25 08:17:53;;;;;;;;;;;22.20;99.90;;;;;;4989611;28;19940;-79
2022/06/25 08:20:19;;;;;;;;;;;22.30;99.90;;;;;;5005759;28;19917;-80
2022/06/25 08:22:44;;;;;;;;;;;22.30;99.90;;;;;;5021622;28;20284;-80
2022/06/25 08:25:10;;;;;;;;;;;22.40;99.90;;;;;;5004568;28;20363;-81
2022/06/25 08:27:51;;;;;;;;;;;22.40;99.90;;;;;;4985375;28;19921;-81
2022/06/25 08:30:17;;;;;;;;;;;22.60;99.90;;;;;;5002411;28;19939;-81
2022/06/25 08:32:43;;;;;;;;;;;22.70;99.90;;;;;;5013413;28;19923;-81
2022/06/25 08:35:09;;;;;;;;;;;22.90;99.90;;;;;;5013564;28;19944;-82
2022/06/25 08:37:38;;;;;;;;;;;22.90;99.90;;;;;;4999281;28;20288;-84
2022/06/25 08:40:05;;;;;;;;;;;23.10;99.90;;;;;;5007686;28;19928;-83
2022/06/25 08:42:31;;;;;;;;;;;23.20;99.90;;;;;;4990306;28;20358;-83
2022/06/25 08:44:56;;;;;;;;;;;23.30;99.90;;;;;;4995551;28;19917;-82
2022/06/25 08:47:22;;;;;;;;;;;23.40;99.90;;;;;;4999534;28;19967;-83
2022/06/25 08:49:48;;;;;;;;;;;23.60;99.90;;;;;;5010647;28;19975;-83
2022/06/25 08:52:15;;;;;;;;;;;23.70;99.90;;;;;;4995919;28;19964;-82
2022/06/25 08:54:41;;;;;;;;;;;23.90;99.90;;;;;;5009402;28;19917;-83
2022/06/25 08:57:08;;;;;;;;;;;23.90;99.90;;;;;;5005944;28;19969;-80
2022/06/25 08:59:34;;;;;;;;;;;24.00;99.90;;;;;;4998360;28;19956;-81
2022/06/25 09:01:59;;;;;;;;;;;24.00;99.90;;;;;;5012635;28;19949;-80
2022/06/25 09:04:26;;;;;;;;;;;23.80;99.90;;;;;;5009061;28;19941;-80
2022/06/25 09:07:12;;;;;;;;;;;23.60;99.90;;;;;;4990599;28;19918;-80
2022/06/25 09:09:38;;;;;;;;;;;23.50;99.90;;;;;;5001250;28;19979;-82
2022/06/25 09:12:07;;;;;;;;;;;23.40;99.90;;;;;;5000367;28;19929;-80
2022/06/25 09:14:35;;;;;;;;;;;23.30;99.90;;;;;;5007660;28;20285;-80
2022/06/25 09:17:04;;;;;;;;;;;23.40;99.90;;;;;;5013949;28;19924;-81
2022/06/25 09:19:31;;;;;;;;;;;23.50;99.90;;;;;;5005797;28;19917;-80
2022/06/25 09:21:58;;;;;;;;;;;23.50;99.90;;;;;;5006462;28;19924;-81
2022/06/25 09:24:37;;;;;;;;;;;23.70;99.90;;;;;;5009054;28;19918;-79
2022/06/25 09:27:03;;;;;;;;;;;23.80;99.90;;;;;;5009436;28;19918;-80
2022/06/25 09:29:43;;;;;;;;;;;23.90;99.90;;;;;;4997163;28;19926;-80
2022/06/25 09:32:08;;;;;;;;;;;23.90;99.90;;;;;;5008588;28;19964;-80
2022/06/25 09:34:35;;;;;;;;;;;24.10;99.90;;;;;;5002426;28;19969;-80
2022/06/25 09:37:20;;;;;;;;;;;24.20;99.90;;;;;;5009073;28;20335;-80
2022/06/25 09:39:46;;;;;;;;;;;24.30;99.90;;;;;;5005990;28;19975;-80
2022/06/25 09:42:22;;;;;;;;;;;24.50;99.90;;;;;;4979107;28;19917;-79
2022/06/25 09:44:50;;;;;;;;;;;24.60;99.90;;;;;;4996131;28;19968;-80
2022/06/25 09:47:16;;;;;;;;;;;24.80;99.90;;;;;;4991697;28;19921;-80
2022/06/25 09:49:42;;;;;;;;;;;24.90;99.90;;;;;;5001351;28;19979;-80
2022/06/25 09:52:09;;;;;;;;;;;25.00;99.90;;;;;;4996215;28;19928;-80
2022/06/25 09:54:35;;;;;;;;;;;25.00;99.90;;;;;;5006652;28;19917;-80
2022/06/25 09:57:00;;;;;;;;;;;25.00;99.90;;;;;;5010426;28;20012;-80
2022/06/25 09:59:28;;;;;;;;;;;25.10;99.90;;;;;;5016960;28;19920;-80
2022/06/25 10:01:54;;;;;;;;;;;25.10;99.90;;;;;;5022452;28;19971;-79
2022/06/25 10:04:20;;;;;;;;;;;25.20;99.90;;;;;;5010598;28;19963;-80
2022/06/25 10:06:47;;;;;;;;;;;25.30;99.90;;;;;;5005303;28;19921;-80
2022/06/25 10:09:13;;;;;;;;;;;25.30;99.90;;;;;;5010778;28;20395;-81
2022/06/25 10:11:39;;;;;;;;;;;25.30;99.90;;;;;;4992501;28;19918;-82
2022/06/25 10:14:06;;;;;;;;;;;25.30;99.90;;;;;;4990223;28;19929;-82
2022/06/25 10:16:31;;;;;;;;;;;25.30;99.90;;;;;;5006963;28;20019;-83
2022/06/25 10:19:00;;;;;;;;;;;25.60;99.90;;;;;;4991389;28;19960;-82
2022/06/25 10:21:25;;;;;;;;;;;25.80;99.90;;;;;;4989093;28;20143;-82
2022/06/25 10:24:00;;;;;;;;;;;25.80;99.90;;;;;;4973892;28;19918;-81
2022/06/25 10:26:26;;;;;;;;;;;25.80;99.90;;;;;;5010877;28;19921;-81
2022/06/25 10:28:52;;;;;;;;;;;26.00;99.90;;;;;;5008859;28;19921;-81
2022/06/25 10:31:18;;;;;;;;;;;25.80;99.90;;;;;;4991940;28;19923;-80
2022/06/25 10:33:59;;;;;;;;;;;25.60;99.90;;;;;;5010385;28;20013;-80
2022/06/25 10:36:43;;;;;;;;;;;25.50;99.90;;;;;;5007900;28;20003;-81
2022/06/25 10:39:27;;;;;;;;;;;25.40;99.90;;;;;;5007358;28;19948;-80
2022/06/25 10:45:16;;;;;;;;;;;25.30;99.90;;;;;;5008710;28;19925;-84
2022/06/25 10:47:52;;;;;;;;;;;25.40;99.90;;;;;;4972527;28;19924;-79
2022/06/25 10:50:21;;;;;;;;;;;25.60;99.90;;;;;;5010200;28;19925;-82
2022/06/25 10:53:02;;;;;;;;;;;25.60;99.90;;;;;;4995483;28;19921;-80
2022/06/25 10:55:35;;;;;;;;;;;25.80;99.90;;;;;;5012940;28;19925;-80
2022/06/25 10:58:13;;;;;;;;;;;25.90;99.90;;;;;;5014427;28;19917;-80
2022/06/25 11:00:48;;;;;;;;;;;26.10;99.90;;;;;;5011443;28;20300;-80
2022/06/25 11:03:14;;;;;;;;;;;26.10;99.90;;;;;;4987950;28;19917;-79
2022/06/25 11:05:41;;;;;;;;;;;25.90;99.90;;;;;;4996979;28;19924;-79
2022/06/25 11:08:07;;;;;;;;;;;25.70;99.90;;;;;;4997512;28;20357;-79
2022/06/25 11:10:36;;;;;;;;;;;25.60;99.90;;;;;;5005903;28;20008;-80
2022/06/25 11:13:03;;;;;;;;;;;25.50;99.90;;;;;;5011884;28;19922;-79
2022/06/25 11:15:39;;;;;;;;;;;25.50;99.90;;;;;;5022611;28;19917;-80
2022/06/25 11:18:12;;;;;;;;;;;25.40;99.90;;;;;;5015824;28;19917;-79
2022/06/25 11:20:37;;;;;;;;;;;25.60;99.80;;;;;;5011053;28;19917;-81
2022/06/25 11:23:04;;;;;;;;;;;25.80;99.90;;;;;;5002475;28;19940;-80
2022/06/25 11:28:48;;;;;;;;;;;25.60;99.90;;;;;;5012924;28;19924;-80
2022/06/25 11:31:17;;;;;;;;;;;25.30;99.90;;;;;;4998679;28;19964;-80
2022/06/25 11:33:43;;;;;;;;;;;25.20;99.90;;;;;;5022374;28;19948;-79
2022/06/25 11:36:09;;;;;;;;;;;24.90;99.90;;;;;;4995834;28;20367;-79
2022/06/25 11:38:36;;;;;;;;;;;24.70;99.90;;;;;;4997814;28;19917;-79
2022/06/25 11:41:02;;;;;;;;;;;24.50;99.90;;;;;;5020774;28;19983;-80
2022/06/25 11:43:28;;;;;;;;;;;24.40;99.90;;;;;;5022776;28;19924;-80
2022/06/25 11:45:57;;;;;;;;;;;24.30;99.90;;;;;;5004791;28;19917;-79
2022/06/25 11:48:28;;;;;;;;;;;24.10;99.90;;;;;;5010865;28;19972;-79
2022/06/25 11:50:54;;;;;;;;;;;23.90;99.90;;;;;;5017177;28;19918;-79
2022/06/25 11:53:20;;;;;;;;;;;23.80;99.90;;;;;;4991324;28;19920;-80
2022/06/25 11:55:59;;;;;;;;;;;23.80;99.90;;;;;;5002864;28;19994;-80
2022/06/25 11:58:26;;;;;;;;;;;23.80;99.90;;;;;;5002688;28;19924;-80
2022/06/25 12:00:56;;;;;;;;;;;23.90;99.90;;;;;;5005666;28;20011;-79
2022/06/25 12:03:25;;;;;;;;;;;23.90;99.90;;;;;;5010486;28;19952;-79
2022/06/25 12:05:51;;;;;;;;;;;24.00;99.90;;;;;;5018249;28;19959;-80
2022/06/25 12:08:17;;;;;;;;;;;24.10;99.90;;;;;;5022836;28;19932;-79
2022/06/25 12:10:45;;;;;;;;;;;24.00;99.90;;;;;;5004871;28;19940;-80
2022/06/25 12:13:13;;;;;;;;;;;23.90;99.90;;;;;;5021795;28;19929;-79
2022/06/25 12:15:39;;;;;;;;;;;23.80;99.90;;;;;;5026452;28;19917;-81
2022/06/25 12:18:05;;;;;;;;;;;23.60;99.90;;;;;;5021452;28;19921;-81
2022/06/25 12:20:31;;;;;;;;;;;23.50;99.90;;;;;;4992470;28;19924;-80
2022/06/25 12:22:57;;;;;;;;;;;23.30;99.90;;;;;;5007658;28;19917;-81
2022/06/25 12:25:24;;;;;;;;;;;23.20;99.90;;;;;;5030907;28;19925;-81
2022/06/25 12:27:50;;;;;;;;;;;23.20;99.90;;;;;;5008145;28;20005;-81
2022/06/25 12:30:23;;;;;;;;;;;23.10;99.90;;;;;;4989427;28;19927;-81
2022/06/25 12:32:49;;;;;;;;;;;23.20;99.90;;;;;;5020360;28;19925;-81
2022/06/25 12:35:16;;;;;;;;;;;23.10;99.90;;;;;;5013370;28;19917;-80
2022/06/25 12:37:42;;;;;;;;;;;23.10;99.90;;;;;;5001240;28;19940;-81
2022/06/25 12:40:08;;;;;;;;;;;23.00;99.90;;;;;;5014786;28;19917;-81
2022/06/25 12:42:34;;;;;;;;;;;22.80;99.90;;;;;;5029611;28;20004;-82
2022/06/25 12:44:59;;;;;;;;;;;22.70;99.90;;;;;;5007767;28;20482;-81
2022/06/25 12:47:25;;;;;;;;;;;22.60;99.90;;;;;;4987608;28;19917;-81
2022/06/25 12:49:52;;;;;;;;;;;22.50;99.90;;;;;;5023497;28;20020;-81
2022/06/25 12:52:26;;;;;;;;;;;22.30;99.90;;;;;;5000176;28;20440;-81
2022/06/25 12:54:56;;;;;;;;;;;22.30;99.90;;;;;;4998958;28;19966;-82
2022/06/25 12:57:26;;;;;;;;;;;22.30;99.90;;;;;;4989697;28;19921;-82
2022/06/25 12:59:52;;;;;;;;;;;22.30;99.90;;;;;;5024837;28;19921;-82
2022/06/25 13:02:19;;;;;;;;;;;22.30;99.90;;;;;;4984778;28;19925;-81
2022/06/25 13:04:45;;;;;;;;;;;22.40;99.90;;;;;;4991023;28;19971;-81
2022/06/25 13:07:14;;;;;;;;;;;22.40;99.90;;;;;;5014570;28;19917;-81
2022/06/25 13:09:40;;;;;;;;;;;22.50;99.90;;;;;;5023536;28;19917;-81
2022/06/25 13:12:06;;;;;;;;;;;22.50;99.90;;;;;;4991043;28;20016;-82
2022/06/25 13:14:32;;;;;;;;;;;22.50;99.90;;;;;;4991793;28;19924;-82
2022/06/25 13:16:58;;;;;;;;;;;22.60;99.90;;;;;;5017520;28;19917;-83
2022/06/25 13:19:24;;;;;;;;;;;22.60;99.90;;;;;;5006248;28;19960;-81
2022/06/25 13:21:50;;;;;;;;;;;22.70;99.90;;;;;;5027512;28;19916;-82
2022/06/25 13:24:15;;;;;;;;;;;22.80;99.90;;;;;;5002085;28;19958;-81
2022/06/25 13:26:42;;;;;;;;;;;22.90;99.90;;;;;;4986307;28;19992;-81
2022/06/25 13:29:08;;;;;;;;;;;23.00;99.90;;;;;;5014046;28;19917;-81
2022/06/25 13:31:34;;;;;;;;;;;23.00;99.90;;;;;;5008175;28;20386;-82
2022/06/25 13:33:59;;;;;;;;;;;23.10;99.90;;;;;;5011135;28;20012;-82
2022/06/25 13:36:25;;;;;;;;;;;23.20;99.90;;;;;;5009935;28;20405;-81
2022/06/25 13:38:50;;;;;;;;;;;23.40;99.90;;;;;;5003384;28;19918;-82
2022/06/25 13:41:17;;;;;;;;;;;23.60;99.90;;;;;;5018332;28;19917;-82
2022/06/25 13:43:42;;;;;;;;;;;23.90;99.90;;;;;;5020152;28;20397;-82
2022/06/25 13:46:08;;;;;;;;;;;24.10;99.90;;;;;;5022875;28;19949;-80
2022/06/25 13:48:34;;;;;;;;;;;24.30;99.90;;;;;;5012030;28;19917;-80
2022/06/25 13:50:59;;;;;;;;;;;24.40;99.90;;;;;;5014729;28;19917;-80
2022/06/25 13:53:25;;;;;;;;;;;24.60;99.90;;;;;;5012673;28;19921;-79
2022/06/25 13:55:50;;;;;;;;;;;24.70;99.90;;;;;;5021925;28;19924;-80
2022/06/25 13:58:16;;;;;;;;;;;24.80;99.90;;;;;;5006627;28;19924;-80
2022/06/25 14:00:42;;;;;;;;;;;25.00;99.90;;;;;;5020235;28;19924;-80
2022/06/25 14:03:10;;;;;;;;;;;25.30;99.90;;;;;;5014049;28;19917;-80
2022/06/25 14:05:36;;;;;;;;;;;25.40;99.90;;;;;;5002558;28;20577;-80
2022/06/25 14:08:02;;;;;;;;;;;25.60;99.90;;;;;;5012838;28;20012;-80
2022/06/25 14:10:27;;;;;;;;;;;25.60;99.90;;;;;;5018651;28;19963;-80
2022/06/25 14:12:53;;;;;;;;;;;25.50;99.90;;;;;;5020465;28;19921;-81
2022/06/25 14:15:19;;;;;;;;;;;25.40;99.90;;;;;;5007851;28;20411;-80
2022/06/25 14:17:44;;;;;;;;;;;25.40;99.90;;;;;;5024251;28;19927;-80
2022/06/25 14:20:10;;;;;;;;;;;25.50;99.90;;;;;;5012417;28;20376;-80
2022/06/25 14:22:35;;;;;;;;;;;25.60;99.90;;;;;;5021038;28;19932;-79
2022/06/25 14:27:46;;;;;;;;;;;25.90;99.90;;;;;;5007863;28;20384;-80
2022/06/25 14:30:11;;;;;;;;;;;26.00;99.90;;;;;;5016356;28;19917;-79
2022/06/25 14:32:37;;;;;;;;;;;26.20;99.90;;;;;;5023401;28;19924;-81
2022/06/25 14:35:03;;;;;;;;;;;26.40;99.90;;;;;;5016901;28;20355;-81
2022/06/25 14:42:57;;;;;;;;;;;27.30;99.90;;;;;;5012101;28;20857;-81
2022/06/25 14:45:22;;;;;;;;;;;27.60;99.90;;;;;;5022840;28;20012;-80
2022/06/25 14:47:48;;;;;;;;;;;27.80;97.60;;;;;;5020530;28;19925;-80
2022/06/25 14:50:13;;;;;;;;;;;27.80;93.40;;;;;;5020495;28;19967;-80